LIBN/LCC METAR and TAF weather

Enter ICAO airport designator
Station Type Date Time Source
LIBN METAR 2019/04/19 09:55 UTC NOAA

LIBN 190955Z 01007KT 9999 SCT025 18/12 Q1025 RMK SCT VIS MIN 9999 WIND THR14 01006KT WIND THR32 01008KT BLU


Station Type Date Time Source
LIBN Decoded METAR 2019/04/19 09:55 UTC NOAA

Lecce, Italy (LIBN) 40-14N 018-09E 61M
Apr 19, 2019 - 05:55 AM EDT / 2019.04.19 0955 UTC
Wind: from the N (010 degrees) at 8 MPH (7 KT):0
Visibility: greater than 7 mile(s):0
Sky conditions: partly cloudy
Temperature: 64 F (18 C)
Dew Point: 53 F (12 C)
Relative Humidity: 67%
Pressure (altimeter): 30.27 in. Hg (1025 hPa)
ob: LIBN 190955Z 01007KT 9999 SCT025 18/12 Q1025 RMK SCT VIS MIN 9999 WIND THR14 01006KT WIND THR32 01008KT BLU
cycle: 10

Station Type Date Time Source
LIBN TAF 2019/03/05 12:33 UTC NOAA

TAF TAF LIBN 051100Z 0512/0524 17007KT 9999 FEW035
TEMPO 0512/0515 24012KT 9999 SCT035

Example: see airport list